Time Latitude Longitude Accuracy (66% radius in meters) Altitude (meters) Speed (km/hour) Bearing (degrees) Battery (%) GPS flag
09:36:12 56.280278 44.020533 9 173.89999389648 5.7716979980469 7.3000001907349 11 1 delete
09:36:10 56.280179 44.020526 8 175.10000610352 5.5 4.5999999046326 11 1 delete
09:36:08 56.280070 44.020507 6 173.80000305176 5.3443894386292 4.1999998092651 11 1 delete
09:36:06 56.279939 44.020550 7 172.5 2.7950849533081 95.099998474121 11 1 delete
09:36:03 56.279954 44.020391 6 171.19999694824 5.5226802825928 99.599998474121 11 1 delete
09:36:01 56.279953 44.020221 6 171.30000305176 6.25 91.800003051758 11 1 delete
09:35:59 56.279949 44.020012 5 169.69999694824 5.2737555503845 92.699996948242 11 1 delete
09:35:57 56.279945 44.019813 6 170 4.7762432098389 91.099998474121 11 1 delete
09:35:54 56.279947 44.019594 7 171.39999389648 4.0311288833618 74.800003051758 11 1 delete
09:35:51 56.279892 44.019395 6 168.69999694824 3.5 85.099998474121 11 1 delete
09:35:48 56.279885 44.019201 5 168.60000610352 4.5276927947998 99 11 1 delete
09:35:46 56.279929 44.019045 6 170.80000305176 3.7831864356995 73.800003051758 11 1 delete
09:35:43 56.279879 44.018836 5 173.39999389648 2.5495097637177 80.5 11 1 delete
09:35:41 56.279915 44.018656 10 172.30000305176 3.7831864356995 355.60000610352 11 1 delete
09:35:38 56.279815 44.018672 7 171.10000610352 4.0311288833618 353.89999389648 11 1 delete
09:35:35 56.279700 44.018693 5 170.19999694824 3.75 354.79998779297 11 1 delete
09:35:32 56.279595 44.018693 6 172.89999389648 3.4003677368164 356 11 1 delete
09:35:29 56.279483 44.018752 7 175.69999694824 2.3048861026764 355.79998779297 11 1 delete
09:35:24 56.279368 44.018744 8 166.89999389648 3.7831864356995 340.10000610352 11 1 delete
09:35:20 56.279258 44.018825 7 168 3.5 327.70001220703 11 1 delete
09:35:15 56.279156 44.018929 8 165.39999389648 3.5 354.10000610352 11 1 delete
09:35:11 56.279038 44.018960 7 163.89999389648 3.5 346.60000610352 11 1 delete
09:35:08 56.278933 44.019043 6 163.10000610352 2.7950849533081 347.29998779297 11 1 delete
09:35:04 56.278817 44.019062 9 163.5 3.5 6.1999998092651 11 1 delete
09:35:01 56.278722 44.019064 7 163.80000305176 3.5355339050293 6.0999999046326 11 1 delete
09:34:58 56.278608 44.019027 6 165.10000610352 3.288236618042 2 11 1 delete
09:34:53 56.278500 44.019062 5 163.89999389648 4.0311288833618 21.60000038147 11 1 delete
09:34:49 56.278431 44.018924 7 167 4.0311288833618 55.900001525879 11 1 delete
09:34:46 56.278373 44.018765 5 169.30000305176 5.5226802825928 73 11 1 delete
09:34:44 56.278364 44.018598 6 171.60000610352 4.25 82.900001525879 11 1 delete
09:34:41 56.278375 44.018388 5 173.60000610352 5.0249376296997 77.199996948242 11 1 delete
09:34:39 56.278340 44.018178 8 179.69999694824 4.7762432098389 105 11 1 delete
09:34:36 56.278388 44.017949 7 181.80000305176 4.3660621643066 108.40000152588 11 1 delete
09:34:34 56.278431 44.017806 8 185.60000610352 3.7831864356995 112.19999694824 11 1 delete
09:34:31 56.278474 44.017629 8 188.89999389648 3.5355339050293 127.40000152588 11 1 delete
09:34:27 56.278555 44.017461 7 193.30000305176 4.6097722053528 117.30000305176 11 1 delete
09:34:25 56.278584 44.017277 8 198.69999694824 2.0615527629852 245.80000305176 11 1 delete
09:34:22 56.278570 44.017456 10 198.89999389648 4.0311288833618 196.19999694824 11 1 delete
09:34:20 56.278659 44.017478 9 200.5 4.6097722053528 193.60000610352 11 1 delete
09:34:18 56.278763 44.017528 10 200.69999694824 4.8541221618652 195 11 1 delete
09:34:11 56.278976 44.017570 10 199.39999389648 3.288236618042 107.69999694824 11 1 delete
09:34:06 56.279067 44.017253 7 201.89999389648 3.5794553756714 115.69999694824 11 1 delete
09:34:03 56.279142 44.017090 6 198.80000305176 3.5355339050293 139.80000305176 11 1 delete
09:34:00 56.279251 44.017048 8 193.30000305176 2.7950849533081 114.90000152588 11 1 delete
09:33:56 56.279298 44.016904 6 190.30000305176 3.7165172100067 95.099998474121 11 1 delete
09:33:53 56.279340 44.016756 7 186.5 3.6400549411774 150.60000610352 11 1 delete
09:33:50 56.279426 44.016642 7 185.5 2.5 162.30000305176 11 1 delete
09:33:46 56.279501 44.016544 8 187.10000610352 2.0155644416809 106.19999694824 11 1 delete
09:33:43 56.279579 44.016423 8 185.30000305176 3.6055512428284 86.300003051758 11 1 delete
09:33:40 56.279583 44.016227 9 184.30000305176 4 111.90000152588 11 1 delete